Share

Newcastle, TX

SOUTH BEND STATION 1 (KTXSOUTH24) Elev 1056 ft | 33.01 °N, 98.66 °W | Change Station

Current weather conditions updated 49 seconds ago

Overcast
Overcast
56.2 °F
Feels Like 56.2 °F
N
3.0
Wind Variable Wind from ESE
Gusts 20.0 mph
Sunrise 7:01 AM
Sunset 8:08 PM
Moon Waning Gibbous

Today is forecast to be Warmer than yesterday.

Pressure 30.21 in
Visibility 10.0 miles
Clouds Mostly Cloudy 1200 ft
Mostly Cloudy 2000 ft
Overcast 2900 ft
Dew Point 55 °F
Humidity 95%
Rainfall 0.00 in
Snow Depth Not available.
UV 0 out of 16
Pollen 6.90 out of 12
Air Quality Not available.
Flu Activity Local Activity
METAR KRPH 180655Z AUTO 11005KT 10SM BKN012 BKN020 OVC029 13/12 A3021 RMK AO2 T01280115

More Conditions Fewer Conditions

Pressure 30.21 in
Visibility 10.0 miles
Clouds Mostly Cloudy 1200 ft
Mostly Cloudy 2000 ft
Overcast 2900 ft
Dew Point 55 °F
Humidity 95%
Rainfall 0.00 in
Snow Depth Not available.
UV 0 out of 16
Pollen 6.90 out of 12
Air Quality Not available.
Flu Activity Local Activity
METAR KRPH 180655Z AUTO 11005KT 10SM BKN012 BKN020 OVC029 13/12 A3021 RMK AO2 T01280115

More Conditions Fewer Conditions

Nowcast | as of 12:02 am CDT on April 18, 2014

Cloudy and damp conditions will prevail overnight. There will be areas of fog and drizzle along with scattered showers. Rainfall amounts will average less than 1/10th of an inch.

×

10-Day Forecast

Almanac

Astronomy

Apr. 18, 2014 Rise Set
Actual Time 7:01 AM CDT 8:08 PM CDT
Civil Twilight 6:35 AM CDT 8:33 PM CDT
Nautical Twilight 6:05 AM CDT 9:04 PM CDT
Astronomical Twilight 5:34 AM CDT 9:35 PM CDT
Moon 11:47 PM CDT 9:31 AM CDT
Length of Visible Light 13h 57m
Length of Day
13h 06m
Tomorrow will be 1m 54s longer.
Waning Gibbous, 90% of the Moon is Illuminated
Today
Waning Gibbous
Apr 22
Last Quarter
Apr 29
New
May 6
First Quarter
May 14
Full

Today's Extremes

State Highs State Lows

Community

  • SUNRISE THROUGH THE TREES.
    SUNRISE THROUGH THE TREES.
  • Dog Wood Blossoms
    Dog Wood Blossoms
  • Morning Light
    Morning Light
  • New Day
    New Day
  • Lake Michigan Sunrise
    Lake Michigan Sunrise

WunderPhotos

Upload Photos

1,702,279 photos uploaded!

WunderBlogs® & News

Nearby

Snow Depth

Station Depth Elevation
No new snow has been reported.

Coastal Water Temperatures

Place Temperature
No Stations Reporting

Earthquake Activity

City Distance Mag. Time & Date
No recent earthquake activity has been reported nearby.
Minimum magnitude displayed is 2.5.

Nearby Weather Stations

Station Location Temp. Dew Point Humidity Wind Precip. Elev Updated Type
SOUTH BEND STATION 1, SOUTH BEND, TX 56.2 °F 55 °F 95% ESE  at  3.0 mph 0.00 in / hr 1056 ft 2:04 AM CDT Normal
3MP LLC Ranch, Eliasville, TX 55.9 °F 54 °F 94% ESE  at  6.0 mph 0.00 in / hr 1096 ft 2:04 AM CDT Rapid Fire

Show More Stations Show Fewer Stations

What do you think?

We're not finished. Please let us know what you like, what you don't like, and what you are still missing.